Menoken, North Dakota
Current Conditions -  °F | °C
As of 9:52 AM on Monday 26 Jan 2015 (Local Time) from KBIS Reporting Station
Clear Clear  
Wind Chill: 35°   Ceiling: Unl
Heat Index: 41°   Visibility: 10mi
Dew Point: 32°   Wind: 9mph
Humidity: 70%   Direction: 300°WNW
Pressure: 29.93"   Gusts: NA
Location:  46.82°N, 100.53°W
Report Text: KBIS 261552Z 30008KT 10SM CLR 05/00 A2993 RMK AO2 SLP152 T00500000
Loading
Personal Weather Stations






























Interactive Weather Map New forecast layout! Learn more

10-Day Weather Forecast

Advertisements
Track Severe Weather on mobile